Time;durP1;ratioP1;P1;durP2;ratioP2;P2;SDS_P1;SDS_P2;PMS_P1;PMS_P2;Temp;Humidity;BMP_temperature;BMP_pressure;BME280_temperature;BME280_humidity;BME280_pressure;Samples;Min_cycle;Max_cycle;Signal;HPM_P1;HPM_P2
2024/01/01 00:00:12;;;;;;;12.60;12.10;;;9.20;99.90;;;;;;5126274;27;20205;-63
2024/01/01 00:02:41;;;;;;;12.13;11.73;;;9.20;99.90;;;;;;5124116;28;20214;-62
2024/01/01 00:05:08;;;;;;;12.65;12.15;;;9.20;99.90;;;;;;5123691;27;20205;-63
2024/01/01 00:07:35;;;;;;;11.70;11.30;;;9.30;99.90;;;;;;5116637;28;20294;-61
2024/01/01 00:10:02;;;;;;;11.97;11.57;;;9.30;99.90;;;;;;5112669;28;20517;-62
2024/01/01 00:12:29;;;;;;;11.90;11.40;;;9.30;99.90;;;;;;5119482;28;20313;-61
2024/01/01 00:14:57;;;;;;;11.53;11.13;;;9.40;99.90;;;;;;5122923;27;20206;-62
2024/01/01 00:17:24;;;;;;;12.57;12.17;;;9.40;99.90;;;;;;5115501;28;20236;-63
2024/01/01 00:19:52;;;;;;;12.87;12.30;;;9.40;99.90;;;;;;5115745;28;20202;-63
2024/01/01 00:22:19;;;;;;;13.10;12.60;;;9.30;99.90;;;;;;5112478;27;20233;-63
2024/01/01 00:24:45;;;;;;;44.93;43.00;;;9.30;99.90;;;;;;5119486;27;20213;-64
2024/01/01 00:27:12;;;;;;;12.13;11.63;;;9.20;99.90;;;;;;5129747;27;20626;-63
2024/01/01 00:29:39;;;;;;;12.53;12.00;;;9.20;99.90;;;;;;5122314;27;20232;-63
2024/01/01 00:32:06;;;;;;;12.30;11.83;;;9.10;99.90;;;;;;5125278;27;20231;-63
2024/01/01 00:34:33;;;;;;;12.07;11.67;;;8.90;99.90;;;;;;5122268;27;20202;-62
2024/01/01 00:37:01;;;;;;;12.00;11.60;;;8.70;99.90;;;;;;5131126;27;20208;-62
2024/01/01 00:39:28;;;;;;;11.67;11.27;;;8.70;99.90;;;;;;5120995;27;20207;-61
2024/01/01 00:41:55;;;;;;;11.73;11.33;;;8.60;99.90;;;;;;5124837;27;20236;-64
2024/01/01 00:44:21;;;;;;;11.57;11.17;;;8.60;99.90;;;;;;5116839;27;20205;-62
2024/01/01 00:46:48;;;;;;;11.67;11.27;;;8.60;99.90;;;;;;5121428;27;20206;-62
2024/01/01 00:49:15;;;;;;;11.30;10.90;;;8.60;99.90;;;;;;5124937;27;20692;-63
2024/01/01 00:51:41;;;;;;;11.70;11.30;;;8.50;99.90;;;;;;5119474;27;20229;-62
2024/01/01 00:54:11;;;;;;;12.00;11.60;;;8.50;99.90;;;;;;5127852;27;20439;-62
2024/01/01 00:56:38;;;;;;;11.47;11.07;;;8.60;99.90;;;;;;5126459;27;20220;-62
2024/01/01 00:59:05;;;;;;;11.23;10.83;;;8.50;99.90;;;;;;5125636;27;20208;-61
2024/01/01 01:01:31;;;;;;;11.77;11.37;;;8.60;99.90;;;;;;5126175;27;20221;-62
2024/01/01 01:03:58;;;;;;;12.27;11.87;;;8.50;99.90;;;;;;5121375;27;20233;-62
2024/01/01 01:06:25;;;;;;;11.70;11.30;;;8.50;99.90;;;;;;5118256;27;20209;-61
2024/01/01 01:08:51;;;;;;;11.50;11.10;;;8.50;99.90;;;;;;5118781;27;20225;-62
2024/01/01 01:11:19;;;;;;;11.73;11.33;;;8.50;99.90;;;;;;5132348;27;20231;-63
2024/01/01 01:13:46;;;;;;;11.90;11.40;;;8.50;99.90;;;;;;5130461;27;20209;-61
2024/01/01 01:16:13;;;;;;;11.93;11.53;;;8.50;99.90;;;;;;5137152;27;20201;-61
2024/01/01 01:18:40;;;;;;;12.70;12.20;;;8.50;99.90;;;;;;5122856;27;20205;-62
2024/01/01 01:21:06;;;;;;;12.20;11.77;;;8.50;99.90;;;;;;5121739;27;20221;-61
2024/01/01 01:23:33;;;;;;;11.70;11.30;;;8.40;99.90;;;;;;5124452;27;20206;-63
2024/01/01 01:26:00;;;;;;;11.50;11.10;;;8.40;99.90;;;;;;5117814;27;20209;-62
2024/01/01 01:28:28;;;;;;;11.20;10.80;;;8.30;99.90;;;;;;5124937;27;20730;-62
2024/01/01 01:30:54;;;;;;;12.33;11.83;;;8.40;99.90;;;;;;5128601;27;20589;-61
2024/01/01 01:33:21;;;;;;;12.05;11.60;;;8.40;99.90;;;;;;5129422;27;20205;-62
2024/01/01 01:35:48;;;;;;;11.77;11.37;;;8.40;99.90;;;;;;5130910;27;20206;-61
2024/01/01 01:38:15;;;;;;;11.23;10.83;;;8.40;99.90;;;;;;5128343;27;20198;-62
2024/01/01 01:40:41;;;;;;;11.83;11.33;;;8.40;99.90;;;;;;5130775;27;20218;-62
2024/01/01 01:43:21;;;;;;;12.07;11.67;;;8.40;99.90;;;;;;5127887;27;20202;-62
2024/01/01 01:45:49;;;;;;;11.70;11.30;;;8.40;99.90;;;;;;5126031;27;20197;-61
2024/01/01 01:48:17;;;;;;;11.60;11.20;;;8.50;99.90;;;;;;5130304;27;20220;-61
2024/01/01 01:50:45;;;;;;;11.63;11.23;;;8.50;99.90;;;;;;5129033;28;20712;-63
2024/01/01 01:53:13;;;;;;;11.90;11.43;;;8.50;99.90;;;;;;5137398;27;20202;-62
2024/01/01 01:55:42;;;;;;;11.70;11.30;;;8.50;99.90;;;;;;5129163;28;20228;-62
2024/01/01 01:58:10;;;;;;;12.33;11.83;;;8.50;99.90;;;;;;5129220;28;20197;-63
2024/01/01 02:00:37;;;;;;;12.00;11.60;;;8.50;99.90;;;;;;5129921;28;20218;-64
2024/01/01 02:03:07;;;;;;;11.80;11.30;;;8.40;99.90;;;;;;5127671;27;20210;-61
2024/01/01 02:05:34;;;;;;;13.37;12.87;;;8.40;99.90;;;;;;5129546;27;20212;-61
2024/01/01 02:08:02;;;;;;;13.00;12.50;;;8.50;99.90;;;;;;5133022;27;20251;-63
2024/01/01 02:10:28;;;;;;;12.90;12.40;;;8.50;99.90;;;;;;5131909;27;20197;-63
2024/01/01 02:15:36;;;;;;;11.67;11.27;;;8.50;99.90;;;;;;5081024;28;20275;-62
2024/01/01 02:18:02;;;;;;;12.33;11.90;;;8.50;99.90;;;;;;5081693;28;20203;-62
2024/01/01 02:20:30;;;;;;;13.13;12.63;;;8.50;99.90;;;;;;5079188;28;20214;-62
2024/01/01 02:22:59;;;;;;;13.53;13.03;;;8.50;99.90;;;;;;5085331;28;20203;-63
2024/01/01 02:25:25;;;;;;;13.10;12.60;;;8.40;99.90;;;;;;5083889;28;20211;-62
2024/01/01 02:27:52;;;;;;;12.40;12.00;;;8.50;99.90;;;;;;5079173;28;20234;-62
2024/01/01 02:30:19;;;;;;;11.63;11.23;;;8.40;99.90;;;;;;5079182;28;20222;-61
2024/01/01 02:32:45;;;;;;;12.00;11.57;;;8.50;99.90;;;;;;5078547;28;20211;-63
2024/01/01 02:35:12;;;;;;;11.40;11.00;;;8.40;99.90;;;;;;5071573;28;20211;-61
2024/01/01 02:37:39;;;;;;;11.97;11.47;;;8.40;99.90;;;;;;5069399;28;20200;-62
2024/01/01 02:40:08;;;;;;;11.63;11.13;;;8.40;99.90;;;;;;5070965;28;20203;-62
2024/01/01 02:42:35;;;;;;;11.87;11.47;;;8.50;99.90;;;;;;5071002;28;20615;-61
2024/01/01 02:45:02;;;;;;;11.53;11.13;;;8.50;99.90;;;;;;5070937;28;20211;-63
2024/01/01 02:47:29;;;;;;;11.30;10.90;;;8.50;99.90;;;;;;5110568;28;20231;-62
2024/01/01 02:49:56;;;;;;;11.75;11.35;;;8.50;99.90;;;;;;5114706;28;20540;-62
2024/01/01 02:52:22;;;;;;;11.13;10.73;;;8.50;99.90;;;;;;5114357;28;20230;-64
2024/01/01 02:54:49;;;;;;;11.50;11.10;;;8.50;99.90;;;;;;5128290;28;20220;-63
2024/01/01 02:57:17;;;;;;;11.60;11.20;;;8.50;99.90;;;;;;5120540;27;20210;-63
2024/01/01 02:59:44;;;;;;;11.33;10.93;;;8.50;99.90;;;;;;5112413;28;20193;-62
2024/01/01 03:02:12;;;;;;;11.73;11.23;;;8.60;99.90;;;;;;5114295;28;20739;-62
2024/01/01 03:04:38;;;;;;;11.40;10.93;;;8.60;99.90;;;;;;5112050;28;20664;-62
2024/01/01 03:07:05;;;;;;;11.40;11.00;;;8.60;99.90;;;;;;5112418;27;20213;-62
2024/01/01 03:09:32;;;;;;;11.07;10.67;;;8.60;99.90;;;;;;5114547;28;20570;-63
2024/01/01 03:11:58;;;;;;;11.33;10.93;;;8.60;99.90;;;;;;5114128;28;20221;-65
2024/01/01 03:14:27;;;;;;;11.80;11.40;;;8.60;99.90;;;;;;5112975;28;20211;-63
2024/01/01 03:16:53;;;;;;;11.70;11.30;;;8.50;99.90;;;;;;5114068;28;20210;-62
2024/01/01 03:19:20;;;;;;;10.97;10.57;;;8.60;99.90;;;;;;5113792;28;20566;-62
2024/01/01 03:21:47;;;;;;;12.03;11.63;;;8.60;99.90;;;;;;5113702;28;20236;-61
2024/01/01 03:24:15;;;;;;;11.97;11.57;;;8.60;99.90;;;;;;5113067;28;20201;-63
2024/01/01 03:26:42;;;;;;;11.17;10.77;;;8.60;99.90;;;;;;5113810;28;20206;-63
2024/01/01 03:29:08;;;;;;;11.07;10.67;;;8.60;99.90;;;;;;5113279;27;20217;-63
2024/01/01 03:31:36;;;;;;;11.30;10.90;;;8.60;99.90;;;;;;5113083;28;20217;-63
2024/01/01 03:34:03;;;;;;;13.13;12.63;;;8.60;99.90;;;;;;5112501;28;20198;-63
2024/01/01 03:36:30;;;;;;;11.40;11.00;;;8.50;99.90;;;;;;5112212;28;20206;-61
2024/01/01 03:38:57;;;;;;;11.97;11.53;;;8.50;99.90;;;;;;5113304;28;20209;-64
2024/01/01 03:41:26;;;;;;;12.20;11.60;;;8.50;99.90;;;;;;5113047;28;20241;-63
2024/01/01 03:43:53;;;;;;;11.10;10.70;;;8.40;99.90;;;;;;5113190;28;20293;-63
2024/01/01 03:46:19;;;;;;;11.30;10.90;;;8.40;99.90;;;;;;5112670;28;20221;-63
2024/01/01 03:48:47;;;;;;;11.30;10.90;;;8.40;99.90;;;;;;5108262;28;20221;-63
2024/01/01 03:51:14;;;;;;;11.00;10.60;;;8.40;99.90;;;;;;5114690;28;20222;-61
2024/01/01 03:53:41;;;;;;;11.20;10.80;;;8.40;99.90;;;;;;5125438;28;20202;-63
2024/01/01 03:56:08;;;;;;;11.97;11.57;;;8.40;99.90;;;;;;5122537;28;20204;-63
2024/01/01 03:58:36;;;;;;;11.23;10.83;;;8.40;99.90;;;;;;5120917;28;20209;-61
2024/01/01 04:01:03;;;;;;;11.48;11.07;;;8.40;99.90;;;;;;5113499;28;20240;-63
2024/01/01 04:03:29;;;;;;;10.60;10.20;;;8.40;99.90;;;;;;5113089;27;20202;-62
2024/01/01 04:05:57;;;;;;;11.20;10.80;;;8.40;99.90;;;;;;5112021;28;20198;-62
2024/01/01 04:08:24;;;;;;;11.02;10.63;;;8.40;99.90;;;;;;5111239;28;20242;-62
2024/01/01 04:10:51;;;;;;;11.20;10.80;;;8.40;99.90;;;;;;5112201;28;20271;-63
2024/01/01 04:13:17;;;;;;;11.50;11.10;;;8.30;99.90;;;;;;5119932;28;20197;-62
2024/01/01 04:15:44;;;;;;;11.60;11.20;;;8.30;99.90;;;;;;5112031;28;20202;-62
2024/01/01 04:18:11;;;;;;;10.43;10.03;;;8.30;99.90;;;;;;5112289;28;20677;-64
2024/01/01 04:20:38;;;;;;;11.80;11.40;;;8.30;99.90;;;;;;5111802;28;20708;-62
2024/01/01 04:23:06;;;;;;;11.18;10.77;;;8.30;99.90;;;;;;5123026;27;20197;-63
2024/01/01 04:25:32;;;;;;;11.47;10.97;;;8.20;99.90;;;;;;5120531;27;20201;-63
2024/01/01 04:27:59;;;;;;;11.13;10.73;;;8.20;99.90;;;;;;5119067;27;20201;-62
2024/01/01 04:30:26;;;;;;;11.30;10.90;;;8.10;99.90;;;;;;5128796;27;20202;-63
2024/01/01 04:32:52;;;;;;;12.00;11.50;;;8.10;99.90;;;;;;5128673;27;20198;-62
2024/01/01 04:35:19;;;;;;;11.50;11.10;;;8.10;99.90;;;;;;5140391;27;20221;-63
2024/01/01 04:37:46;;;;;;;11.30;10.90;;;8.00;99.90;;;;;;5126674;27;20198;-63
2024/01/01 04:40:14;;;;;;;11.07;10.67;;;8.00;99.90;;;;;;5118728;27;20225;-63
2024/01/01 04:42:41;;;;;;;11.40;11.00;;;8.00;99.90;;;;;;5123163;27;20205;-64
2024/01/01 04:45:08;;;;;;;11.60;11.20;;;8.10;99.90;;;;;;5125414;27;20202;-62
2024/01/01 04:47:35;;;;;;;11.47;11.07;;;8.10;99.90;;;;;;5128297;27;20227;-62
2024/01/01 04:50:02;;;;;;;11.52;11.13;;;8.20;99.90;;;;;;5121064;27;20229;-62
2024/01/01 04:52:29;;;;;;;11.10;10.70;;;8.10;99.90;;;;;;5129548;27;20285;-61
2024/01/01 04:54:58;;;;;;;11.00;10.60;;;8.10;99.90;;;;;;5127939;27;20205;-62
2024/01/01 04:57:27;;;;;;;10.93;10.53;;;8.10;99.90;;;;;;5125812;27;20197;-62
2024/01/01 04:59:53;;;;;;;11.03;10.63;;;8.10;99.90;;;;;;5130741;27;20201;-62
2024/01/01 05:02:20;;;;;;;11.37;10.97;;;8.10;99.90;;;;;;5135357;27;20226;-63
2024/01/01 05:04:47;;;;;;;11.60;11.20;;;8.20;99.90;;;;;;5134596;27;20217;-62
2024/01/01 05:07:14;;;;;;;11.47;11.07;;;8.20;99.90;;;;;;5125202;27;20678;-63
2024/01/01 05:09:43;;;;;;;11.93;11.47;;;8.20;99.90;;;;;;5124941;27;20225;-62
2024/01/01 05:12:09;;;;;;;11.37;10.97;;;8.20;99.90;;;;;;5128395;27;20221;-62
2024/01/01 05:14:39;;;;;;;11.63;11.23;;;8.20;99.90;;;;;;5120374;27;20197;-63
2024/01/01 05:17:06;;;;;;;10.93;10.53;;;8.20;99.90;;;;;;5129043;27;20214;-62
2024/01/01 05:19:32;;;;;;;11.67;11.27;;;8.20;99.90;;;;;;5121205;27;20671;-62
2024/01/01 05:22:02;;;;;;;12.07;11.60;;;8.20;99.90;;;;;;5121311;27;20244;-62
2024/01/01 05:24:28;;;;;;;11.00;10.60;;;8.10;99.90;;;;;;5125345;27;20680;-62
2024/01/01 05:26:55;;;;;;;11.67;11.23;;;8.10;99.90;;;;;;5122239;27;20202;-62
2024/01/01 05:29:22;;;;;;;11.23;10.83;;;8.20;99.90;;;;;;5127231;27;20245;-62
2024/01/01 05:31:50;;;;;;;11.50;11.10;;;8.30;99.90;;;;;;5123907;27;20225;-62
2024/01/01 05:34:17;;;;;;;11.60;11.20;;;8.30;99.90;;;;;;5129998;27;20204;-63
2024/01/01 05:36:44;;;;;;;11.70;11.30;;;8.30;99.90;;;;;;5126227;27;20205;-62
2024/01/01 05:39:10;;;;;;;11.87;11.33;;;8.30;99.90;;;;;;5122217;27;20546;-61
2024/01/01 05:41:37;;;;;;;11.60;11.20;;;8.30;99.90;;;;;;5120949;27;20221;-60
2024/01/01 05:44:04;;;;;;;11.93;11.53;;;8.40;99.90;;;;;;5121567;27;20683;-62
2024/01/01 05:46:31;;;;;;;11.90;11.50;;;8.40;99.90;;;;;;5123621;27;20202;-62
2024/01/01 05:48:59;;;;;;;11.23;10.83;;;8.30;99.90;;;;;;5126746;27;20217;-62
2024/01/01 05:51:26;;;;;;;12.30;11.80;;;8.40;99.90;;;;;;5128425;27;20224;-63
2024/01/01 05:53:57;;;;;;;11.23;10.83;;;8.30;99.90;;;;;;5121450;28;20657;-62
2024/01/01 05:56:24;;;;;;;11.67;11.27;;;8.30;99.90;;;;;;5123509;27;20198;-63
2024/01/01 05:58:50;;;;;;;11.50;11.10;;;8.30;99.90;;;;;;5122274;28;20213;-62
2024/01/01 06:01:17;;;;;;;11.63;11.23;;;8.20;99.90;;;;;;5120191;27;20221;-62
2024/01/01 06:03:46;;;;;;;12.13;11.73;;;8.20;99.90;;;;;;5122162;27;20224;-62
2024/01/01 06:06:15;;;;;;;11.87;11.47;;;8.20;99.90;;;;;;5126781;27;20206;-63
2024/01/01 06:08:42;;;;;;;12.43;11.93;;;8.30;99.90;;;;;;5123055;27;20357;-61
2024/01/01 06:11:09;;;;;;;11.47;11.07;;;8.30;99.90;;;;;;5121075;28;20213;-61
2024/01/01 06:13:35;;;;;;;11.73;11.33;;;8.30;99.90;;;;;;5128362;27;20213;-62
2024/01/01 06:16:03;;;;;;;11.47;11.07;;;8.30;99.90;;;;;;5124374;28;20207;-61
2024/01/01 06:18:29;;;;;;;11.83;11.37;;;8.20;99.90;;;;;;5126049;28;20209;-61
2024/01/01 06:20:56;;;;;;;11.60;11.20;;;8.20;99.90;;;;;;5127724;28;20217;-62
2024/01/01 06:23:24;;;;;;;11.80;11.40;;;8.10;99.90;;;;;;5127467;27;20250;-61
2024/01/01 06:25:52;;;;;;;11.73;11.33;;;8.00;99.90;;;;;;5120481;27;20258;-60
2024/01/01 06:28:19;;;;;;;11.07;10.67;;;8.00;99.90;;;;;;5127045;28;20197;-63
2024/01/01 06:30:46;;;;;;;11.77;11.27;;;8.00;99.90;;;;;;5126571;27;20699;-62
2024/01/01 06:33:12;;;;;;;11.30;10.90;;;7.90;99.90;;;;;;5121665;27;20206;-61
2024/01/01 06:35:39;;;;;;;12.03;11.53;;;7.90;99.90;;;;;;5123458;27;20561;-61
2024/01/01 06:38:06;;;;;;;11.48;11.07;;;7.90;99.90;;;;;;5122055;27;20194;-63
2024/01/01 06:40:34;;;;;;;11.57;11.07;;;7.90;99.90;;;;;;5123257;27;20228;-62
2024/01/01 06:43:01;;;;;;;10.60;10.20;;;7.90;99.90;;;;;;5119921;27;20238;-61
2024/01/01 06:45:27;;;;;;;12.03;11.63;;;7.90;99.90;;;;;;5127603;28;20201;-63
2024/01/01 06:47:54;;;;;;;11.75;11.35;;;7.80;99.90;;;;;;5122727;27;20594;-63
2024/01/01 06:50:21;;;;;;;11.80;11.40;;;7.90;99.90;;;;;;5130715;27;20267;-61
2024/01/01 06:52:47;;;;;;;11.23;10.83;;;7.90;99.90;;;;;;5130835;27;20205;-61
2024/01/01 06:55:17;;;;;;;12.27;11.87;;;7.80;99.90;;;;;;5130919;27;20212;-61
2024/01/01 06:57:45;;;;;;;11.60;11.10;;;7.80;99.90;;;;;;5128988;27;20292;-61
2024/01/01 07:00:16;;;;;;;11.63;11.23;;;7.90;99.90;;;;;;5124762;27;20202;-63
2024/01/01 07:02:43;;;;;;;11.73;11.33;;;7.90;99.90;;;;;;5130203;27;20263;-61
2024/01/01 07:05:09;;;;;;;11.37;10.87;;;7.90;99.90;;;;;;5128635;27;20206;-61
2024/01/01 07:07:36;;;;;;;11.73;11.23;;;8.00;99.90;;;;;;5125725;27;20217;-61
2024/01/01 07:10:03;;;;;;;12.13;11.67;;;8.00;99.90;;;;;;5124656;27;20226;-61
2024/01/01 07:12:30;;;;;;;11.63;11.23;;;8.00;99.90;;;;;;5130938;27;20221;-62
2024/01/01 07:15:00;;;;;;;11.83;11.43;;;8.00;99.90;;;;;;5129162;27;20660;-61
2024/01/01 07:17:27;;;;;;;12.27;11.87;;;7.90;99.90;;;;;;5132007;27;20205;-61
2024/01/01 07:19:54;;;;;;;17.07;16.37;;;7.90;99.90;;;;;;5127994;27;20202;-64
2024/01/01 07:22:21;;;;;;;12.43;11.93;;;7.80;99.90;;;;;;5131133;27;20213;-63
2024/01/01 07:24:48;;;;;;;11.87;11.40;;;7.80;99.90;;;;;;5130870;27;20678;-64
2024/01/01 07:27:14;;;;;;;12.10;11.60;;;7.90;99.90;;;;;;5126448;27;20197;-62
2024/01/01 07:29:41;;;;;;;11.37;10.97;;;7.90;99.90;;;;;;5125831;27;20695;-62
2024/01/01 07:32:09;;;;;;;11.70;11.30;;;7.90;99.90;;;;;;5123935;27;20225;-62
2024/01/01 07:34:36;;;;;;;12.30;11.87;;;7.80;99.90;;;;;;5131073;27;20205;-63
2024/01/01 07:37:04;;;;;;;11.80;11.30;;;7.80;99.90;;;;;;5123667;27;20252;-62
2024/01/01 07:39:31;;;;;;;11.40;11.00;;;7.80;99.90;;;;;;5130122;27;20196;-62
2024/01/01 07:41:58;;;;;;;11.40;11.00;;;7.80;99.90;;;;;;5128885;27;20312;-63
2024/01/01 07:44:25;;;;;;;11.45;11.05;;;7.90;99.90;;;;;;5128163;27;20197;-62
2024/01/01 07:46:52;;;;;;;11.43;11.03;;;7.90;99.90;;;;;;5119541;27;20205;-61
2024/01/01 07:49:20;;;;;;;11.75;11.25;;;7.90;99.90;;;;;;5126304;27;20222;-64
2024/01/01 07:51:46;;;;;;;10.93;10.53;;;8.00;99.90;;;;;;5123793;27;20232;-63
2024/01/01 07:54:13;;;;;;;12.50;12.00;;;8.00;99.90;;;;;;5128514;27;20209;-63
2024/01/01 07:56:43;;;;;;;11.00;10.60;;;8.00;99.90;;;;;;5125624;27;20577;-64
2024/01/01 07:59:11;;;;;;;11.17;10.77;;;8.00;99.90;;;;;;5130727;27;20215;-63
2024/01/01 08:01:40;;;;;;;11.83;11.33;;;8.00;99.90;;;;;;5128666;27;20279;-63
2024/01/01 08:04:07;;;;;;;12.67;12.17;;;8.00;99.90;;;;;;5127154;27;20261;-63
2024/01/01 08:06:35;;;;;;;11.07;10.67;;;8.10;99.90;;;;;;5127109;27;20212;-62
2024/01/01 08:09:01;;;;;;;10.37;9.97;;;8.10;99.90;;;;;;5122855;27;20210;-62
2024/01/01 08:11:28;;;;;;;11.20;10.80;;;8.00;99.90;;;;;;5122259;27;20229;-61
2024/01/01 08:13:55;;;;;;;11.37;10.97;;;8.10;99.90;;;;;;5116859;27;20206;-63
2024/01/01 08:16:21;;;;;;;12.03;11.57;;;8.10;99.90;;;;;;5120757;27;20285;-62
2024/01/01 08:18:48;;;;;;;11.70;11.30;;;8.20;99.90;;;;;;5122688;27;20213;-63
2024/01/01 08:21:15;;;;;;;11.10;10.70;;;8.20;99.90;;;;;;5120834;27;20217;-62
2024/01/01 08:23:44;;;;;;;11.90;11.40;;;8.30;99.90;;;;;;5120334;27;20209;-64
2024/01/01 08:26:11;;;;;;;11.87;11.43;;;8.30;99.90;;;;;;5121162;27;20205;-62
2024/01/01 08:28:38;;;;;;;11.23;10.82;;;8.30;99.90;;;;;;5119971;27;20205;-63
2024/01/01 08:31:05;;;;;;;10.87;10.47;;;8.30;99.90;;;;;;5119647;27;20605;-62
2024/01/01 08:33:31;;;;;;;11.52;11.13;;;8.50;99.90;;;;;;5123600;27;20197;-63
2024/01/01 08:35:58;;;;;;;11.37;10.97;;;8.50;99.90;;;;;;5118620;27;20207;-63
2024/01/01 08:38:25;;;;;;;11.00;10.60;;;8.50;99.90;;;;;;5122999;27;20347;-63
2024/01/01 08:40:53;;;;;;;11.27;10.87;;;8.50;99.90;;;;;;5118575;27;20551;-63
2024/01/01 08:43:20;;;;;;;11.60;11.20;;;8.40;99.90;;;;;;5122932;27;20581;-63
2024/01/01 08:45:46;;;;;;;11.50;11.10;;;8.40;99.90;;;;;;5117698;27;20206;-62
2024/01/01 08:48:13;;;;;;;11.30;10.90;;;8.50;99.90;;;;;;5121830;27;20743;-62
2024/01/01 08:50:40;;;;;;;11.63;11.23;;;8.60;99.90;;;;;;5121325;27;20273;-63
2024/01/01 08:53:07;;;;;;;11.63;11.23;;;8.60;99.90;;;;;;5120808;27;20208;-63
2024/01/01 08:55:33;;;;;;;11.70;11.30;;;8.60;99.90;;;;;;5123874;27;20201;-63
2024/01/01 08:58:01;;;;;;;12.07;11.67;;;8.60;99.90;;;;;;5115754;27;20542;-63
2024/01/01 09:00:28;;;;;;;11.47;11.07;;;8.60;99.90;;;;;;5121147;27;20201;-63
2024/01/01 09:02:55;;;;;;;11.83;11.43;;;8.60;99.90;;;;;;5118531;27;20202;-62
2024/01/01 09:05:22;;;;;;;11.77;11.37;;;8.60;99.90;;;;;;5115960;27;20206;-62
2024/01/01 09:07:48;;;;;;;11.20;10.80;;;8.70;99.90;;;;;;5117716;27;20575;-62
2024/01/01 09:10:16;;;;;;;11.67;11.27;;;8.70;99.90;;;;;;5119525;27;20217;-64
2024/01/01 09:12:43;;;;;;;11.17;10.77;;;8.70;99.90;;;;;;5116944;27;20298;-62
2024/01/01 09:15:11;;;;;;;11.63;11.23;;;8.80;99.90;;;;;;5118045;27;20198;-63
2024/01/01 09:17:38;;;;;;;11.63;11.13;;;8.80;99.90;;;;;;5121965;27;20672;-64
2024/01/01 09:20:06;;;;;;;12.47;12.00;;;8.80;99.90;;;;;;5115773;27;20194;-64
2024/01/01 09:22:33;;;;;;;11.60;11.20;;;8.90;99.90;;;;;;5120956;27;20240;-63
2024/01/01 09:25:00;;;;;;;12.20;11.80;;;8.90;99.90;;;;;;5123304;27;20221;-63
2024/01/01 09:27:26;;;;;;;11.57;11.17;;;8.90;99.90;;;;;;5129906;27;20200;-63
2024/01/01 09:29:53;;;;;;;12.63;12.13;;;8.90;99.90;;;;;;5131521;27;20291;-64
2024/01/01 09:32:21;;;;;;;11.97;11.57;;;9.00;99.90;;;;;;5124560;27;20222;-62
2024/01/01 09:34:48;;;;;;;13.20;12.70;;;9.00;99.90;;;;;;5130934;27;20201;-65
2024/01/01 09:37:15;;;;;;;12.30;11.90;;;9.00;99.90;;;;;;5129432;27;20897;-64
2024/01/01 09:39:43;;;;;;;12.00;11.47;;;9.10;99.90;;;;;;5120527;27;20198;-62
2024/01/01 09:42:10;;;;;;;12.40;11.93;;;9.10;99.90;;;;;;5124161;27;20221;-64
2024/01/01 09:44:37;;;;;;;12.60;12.20;;;9.30;99.90;;;;;;5128035;27;20205;-62
2024/01/01 09:47:05;;;;;;;12.13;11.73;;;9.30;99.90;;;;;;5126030;28;20206;-63
2024/01/01 09:49:33;;;;;;;12.60;12.10;;;9.30;99.90;;;;;;5120046;27;20265;-63
2024/01/01 09:52:00;;;;;;;12.10;11.70;;;9.40;99.90;;;;;;5119722;27;20270;-63
2024/01/01 09:54:27;;;;;;;12.30;11.83;;;9.50;99.90;;;;;;5122165;27;20204;-64
2024/01/01 09:56:53;;;;;;;12.37;11.97;;;9.50;99.90;;;;;;5118037;27;20220;-63
2024/01/01 09:59:34;;;;;;;12.13;11.67;;;9.60;99.90;;;;;;5121323;28;20202;-62
2024/01/01 10:02:05;;;;;;;13.77;13.27;;;9.70;99.90;;;;;;5120894;27;20289;-63
2024/01/01 10:04:34;;;;;;;13.23;12.73;;;9.70;99.90;;;;;;5121517;28;20209;-62
2024/01/01 10:07:01;;;;;;;12.33;11.90;;;9.80;99.90;;;;;;5117085;27;20243;-64
2024/01/01 10:09:28;;;;;;;11.63;11.13;;;9.80;99.90;;;;;;5123937;28;20691;-63
2024/01/01 10:12:07;;;;;;;12.63;12.13;;;9.90;99.90;;;;;;5120182;27;20225;-65
2024/01/01 10:14:34;;;;;;;12.07;11.67;;;9.80;99.90;;;;;;5123087;27;20618;-64
2024/01/01 10:17:12;;;;;;;12.60;12.10;;;9.90;99.90;;;;;;5120339;27;20221;-66
2024/01/01 10:19:49;;;;;;;12.57;12.10;;;10.00;99.90;;;;;;5118733;27;20197;-64
2024/01/01 10:22:18;;;;;;;12.33;11.87;;;10.10;99.90;;;;;;5119937;28;20274;-63
2024/01/01 10:24:45;;;;;;;12.13;11.67;;;10.10;99.90;;;;;;5127132;27;20201;-64
2024/01/01 10:27:16;;;;;;;11.47;11.07;;;10.20;99.90;;;;;;5125865;27;20209;-63
2024/01/01 10:29:45;;;;;;;11.63;11.23;;;10.20;99.90;;;;;;5133059;27;20212;-63
2024/01/01 10:32:15;;;;;;;12.00;11.50;;;10.20;99.90;;;;;;5131661;27;20218;-63
2024/01/01 10:34:43;;;;;;;12.20;11.80;;;10.20;99.90;;;;;;5136456;27;20209;-63
2024/01/01 10:37:11;;;;;;;12.07;11.57;;;10.30;99.90;;;;;;5131883;27;20638;-67
2024/01/01 10:39:40;;;;;;;12.60;12.10;;;10.40;99.90;;;;;;5131336;27;20205;-63
2024/01/01 10:42:09;;;;;;;11.90;11.50;;;10.40;99.90;;;;;;5124380;27;20229;-63
2024/01/01 10:44:36;;;;;;;11.70;11.30;;;10.40;99.90;;;;;;5122600;27;20271;-62
2024/01/01 10:47:07;;;;;;;12.10;11.70;;;10.30;99.90;;;;;;5125112;27;20233;-63
2024/01/01 10:49:34;;;;;;;11.80;11.40;;;10.30;99.90;;;;;;5125639;27;20261;-63
2024/01/01 10:52:16;;;;;;;12.00;11.50;;;10.30;99.90;;;;;;5124317;27;20327;-64
2024/01/01 10:55:00;;;;;;;12.00;11.50;;;10.40;99.90;;;;;;5122719;27;20209;-63
2024/01/01 10:57:39;;;;;;;11.83;11.40;;;10.40;99.90;;;;;;5120855;27;20218;-63
2024/01/01 11:00:13;;;;;;;11.30;10.90;;;10.30;99.90;;;;;;5122110;27;20201;-63
2024/01/01 11:02:45;;;;;;;11.60;11.20;;;10.30;99.90;;;;;;5123151;27;20224;-63
2024/01/01 11:05:12;;;;;;;12.43;11.93;;;10.20;99.90;;;;;;5113866;27;20660;-62
2024/01/01 11:08:00;;;;;;;11.50;11.10;;;10.20;99.90;;;;;;5123691;27;20699;-64
2024/01/01 11:10:49;;;;;;;12.30;11.80;;;10.20;99.90;;;;;;5126447;27;20221;-63
2024/01/01 11:13:52;;;;;;;13.10;12.60;;;10.20;99.90;;;;;;5131128;27;20262;-63
2024/01/01 11:16:20;;;;;;;12.60;12.10;;;10.10;99.90;;;;;;5122230;27;20201;-63
2024/01/01 11:18:47;;;;;;;11.60;11.20;;;10.20;99.90;;;;;;5126771;27;20216;-63
2024/01/01 11:21:27;;;;;;;12.00;11.60;;;10.10;99.90;;;;;;5125798;27;20423;-63
2024/01/01 11:23:56;;;;;;;12.00;11.60;;;10.10;99.90;;;;;;5118940;27;20284;-64
2024/01/01 11:26:32;;;;;;;13.17;12.67;;;10.10;99.90;;;;;;5118407;27;20206;-63
2024/01/01 11:29:02;;;;;;;11.60;11.20;;;10.10;99.90;;;;;;5121225;27;20204;-63
2024/01/01 11:31:29;;;;;;;12.30;11.80;;;10.20;99.90;;;;;;5127179;27;20297;-63
2024/01/01 11:34:05;;;;;;;12.03;11.60;;;10.20;99.90;;;;;;5125387;27;20228;-62
2024/01/01 11:36:31;;;;;;;12.50;12.00;;;10.30;99.90;;;;;;5135283;27;20208;-63
2024/01/01 11:39:00;;;;;;;11.43;11.00;;;10.40;99.90;;;;;;5137709;27;20197;-64
2024/01/01 11:41:29;;;;;;;11.80;11.37;;;10.50;99.90;;;;;;5132647;27;20209;-63
2024/01/01 11:44:08;;;;;;;12.10;11.70;;;10.50;99.90;;;;;;5132188;27;20212;-64
2024/01/01 11:46:35;;;;;;;12.50;12.00;;;10.60;99.90;;;;;;5125108;27;20687;-63
2024/01/01 11:49:02;;;;;;;12.30;11.80;;;10.60;99.90;;;;;;5122644;27;20212;-64
2024/01/01 11:51:31;;;;;;;12.10;11.70;;;10.60;99.90;;;;;;5123246;27;20304;-63
2024/01/01 11:54:06;;;;;;;12.37;11.97;;;10.60;99.90;;;;;;5123082;27;20204;-64
2024/01/01 11:56:33;;;;;;;12.93;12.43;;;10.60;99.90;;;;;;5113750;27;20206;-62
2024/01/01 11:59:01;;;;;;;13.20;12.52;;;10.60;99.90;;;;;;5111891;28;20215;-62
2024/01/01 12:01:28;;;;;;;12.67;12.17;;;10.70;99.90;;;;;;5121543;27;20218;-63
2024/01/01 12:03:55;;;;;;;11.93;11.53;;;10.70;99.90;;;;;;5109106;27;20205;-64
2024/01/01 12:06:22;;;;;;;12.17;11.73;;;10.70;99.90;;;;;;5113120;27;20212;-63
2024/01/01 12:08:49;;;;;;;12.17;11.67;;;10.70;99.90;;;;;;5119201;27;20206;-63
2024/01/01 12:11:19;;;;;;;12.23;11.73;;;10.70;99.90;;;;;;5111623;28;20218;-62
2024/01/01 12:13:55;;;;;;;12.73;12.23;;;10.70;99.90;;;;;;5113188;28;20210;-63
2024/01/01 12:16:23;;;;;;;12.33;11.83;;;10.70;99.90;;;;;;5115609;27;20246;-64
2024/01/01 12:18:55;;;;;;;12.13;11.73;;;10.70;99.90;;;;;;5115245;27;20730;-63
2024/01/01 12:21:22;;;;;;;12.43;11.93;;;10.70;99.90;;;;;;5116415;27;20271;-65
2024/01/01 12:23:49;;;;;;;12.68;12.18;;;10.70;99.90;;;;;;5119431;27;20565;-63
2024/01/01 12:26:22;;;;;;;12.70;12.20;;;10.70;99.90;;;;;;5124661;27;20216;-63
2024/01/01 12:29:14;;;;;;;12.25;11.82;;;10.70;99.90;;;;;;5123052;27;20206;-64
2024/01/01 12:31:42;;;;;;;12.03;11.63;;;10.80;99.90;;;;;;5117367;27;20692;-63
2024/01/01 12:34:12;;;;;;;12.90;12.40;;;10.80;99.90;;;;;;5114696;27;20719;-64
2024/01/01 12:36:39;;;;;;;13.07;12.57;;;10.80;99.90;;;;;;5118823;27;20206;-64
2024/01/01 12:39:06;;;;;;;14.13;13.63;;;10.90;99.90;;;;;;5110690;27;20212;-63
2024/01/01 12:41:34;;;;;;;13.63;13.13;;;10.90;99.90;;;;;;5116426;27;20214;-64